Uruguaiana, Brazil
Current Conditions -  °F | °C
As of 1:00 PM on Thursday 30 Oct 2014 (Local Time) from SBUG Reporting Station
Overcast Overcast  
Wind Chill: 72°   Ceiling: 10000
Heat Index: 72°   Visibility: 6mi
Dew Point: 64°   Wind: 17mph
Humidity: 78%   Direction: 40°NE
Pressure: 29.77"   Gusts: NA
Location:  29.77°S, 57.09°W
Report Text: SBUG 301500Z 04015KT 9999 SCT015 OVC100 22/18 Q1008
Loading
Personal Weather Stations






























Interactive Weather Map
Tropical Storm Tracking
New forecast layout! Learn more

10-Day Weather Forecast

Advertisements
Track Severe Weather on mobile